首页
METAR-TAF:

METAR-TAF

机场 :

夏洛特道格拉斯國際機場

夏洛特, 北卡罗来纳州, 美国

纬度: 35-12-48N, 经度: 080-56-55W, 海拔: 228米

当前天气观测

该预报发布于35分钟前的23:52 UTC
风速10节,风向东转东北,有时为15节阵风
温度 26°C
湿度 79%
气压 1019 hPa
能見度: 14.5公里
多云层高于6000英尺
多云层高于10000英尺
多云层高于25000英尺

METAR: KCLT 232352Z 06010G15KT 9SM BKN060 BKN100 BKN250 26/22 A3010 RMK AO2 SLP183 60000 T02560217 10306 20256 53009

时间: 20:27 (00:27 UTC)

预报

该预报发布于54分钟前的23:33 UTC
预报有效从24日的 00点(UTC)到 25日的 06点(UTC)
风速10节,风向东转东北
能見度: 10公里
散云层高于4500英尺
多云层高于7000英尺
附近有阵雨
从 24日的 0200点(UTC)
风速7节,风向东转东北
能見度: 10公里
多云层高于2200英尺
从 24日的 0400点(UTC)
风速7节,风向东转东北
能見度: 10公里
多云层高于1500英尺
从 24日的 0900点(UTC)
风速6节,风向东北
能見度: 10公里
阴天层高于800英尺
从 24日的 1800点(UTC)
风速6节,风向东转东北
能見度: 10公里
多云层高于1500英尺
阴天层高于2500英尺
从 25日的 0400点(UTC)
风速6节,风向
能見度: 10公里
阴天层高于1700英尺

TAF: KCLT 232333Z 2400/2506 07010KT P6SM VCSH SCT045 BKN070 FM240200 07007KT P6SM BKN022 FM240400 07007KT P6SM BKN015 FM240900 05006KT P6SM OVC008 FM241800 07006KT P6SM BKN015 OVC025 FM250400 08006KT P6SM OVC017

超过4000个机场的气象观测和天气预报(METAR&TAF报告)。

可查询的气象台以黄色和红色小点在地图上表示。

将鼠标移到小点上方,可查看气象台名称。

然后点击查看天气观测和预报。

如需切换地图:点击带黑十字的绿色按钮放大地图;点击带横线的绿色按钮缩小地图;或者点击绿色箭头查看邻近地区的地图。


METAR-TAF: